sensor_id;sensor_type;location;lat;lon;timestamp;P1;durP1;ratioP1;P2;durP2;ratioP2
73642;SDS011;61938;48.652;9.292;2022-12-07T00:02:04;16.77;;;8.40;;
73642;SDS011;61938;48.652;9.292;2022-12-07T00:04:29;19.73;;;8.35;;
73642;SDS011;61938;48.652;9.292;2022-12-07T00:06:55;23.25;;;8.98;;
73642;SDS011;61938;48.652;9.292;2022-12-07T00:09:20;15.65;;;7.88;;
73642;SDS011;61938;48.652;9.292;2022-12-07T00:11:48;17.45;;;9.02;;
73642;SDS011;61938;48.652;9.292;2022-12-07T00:14:15;15.70;;;8.80;;
73642;SDS011;61938;48.652;9.292;2022-12-07T00:16:41;18.40;;;8.43;;
73642;SDS011;61938;48.652;9.292;2022-12-07T00:19:08;16.33;;;7.97;;
73642;SDS011;61938;48.652;9.292;2022-12-07T00:21:35;18.60;;;8.38;;
73642;SDS011;61938;48.652;9.292;2022-12-07T00:24:01;17.27;;;8.77;;
73642;SDS011;61938;48.652;9.292;2022-12-07T00:26:29;18.30;;;9.05;;
73642;SDS011;61938;48.652;9.292;2022-12-07T00:28:57;22.10;;;9.93;;
73642;SDS011;61938;48.652;9.292;2022-12-07T00:31:26;17.50;;;9.25;;
73642;SDS011;61938;48.652;9.292;2022-12-07T00:33:53;17.23;;;8.80;;
73642;SDS011;61938;48.652;9.292;2022-12-07T00:36:19;17.40;;;9.40;;
73642;SDS011;61938;48.652;9.292;2022-12-07T00:38:46;17.63;;;8.40;;
73642;SDS011;61938;48.652;9.292;2022-12-07T00:41:16;15.15;;;8.52;;
73642;SDS011;61938;48.652;9.292;2022-12-07T00:43:44;18.63;;;8.38;;
73642;SDS011;61938;48.652;9.292;2022-12-07T00:46:10;15.93;;;7.95;;
73642;SDS011;61938;48.652;9.292;2022-12-07T00:48:36;16.08;;;7.80;;
73642;SDS011;61938;48.652;9.292;2022-12-07T00:51:03;16.92;;;8.82;;
73642;SDS011;61938;48.652;9.292;2022-12-07T00:53:29;14.63;;;7.93;;
73642;SDS011;61938;48.652;9.292;2022-12-07T00:55:55;16.40;;;8.68;;
73642;SDS011;61938;48.652;9.292;2022-12-07T00:58:21;14.80;;;7.70;;
73642;SDS011;61938;48.652;9.292;2022-12-07T01:00:48;17.60;;;8.75;;
73642;SDS011;61938;48.652;9.292;2022-12-07T01:03:14;15.70;;;8.20;;
73642;SDS011;61938;48.652;9.292;2022-12-07T01:05:48;13.98;;;7.85;;
73642;SDS011;61938;48.652;9.292;2022-12-07T01:08:17;16.48;;;8.27;;
73642;SDS011;61938;48.652;9.292;2022-12-07T01:10:43;23.98;;;8.73;;
73642;SDS011;61938;48.652;9.292;2022-12-07T01:13:09;15.07;;;8.07;;
73642;SDS011;61938;48.652;9.292;2022-12-07T01:15:34;13.75;;;7.63;;
73642;SDS011;61938;48.652;9.292;2022-12-07T01:18:04;16.30;;;8.30;;
73642;SDS011;61938;48.652;9.292;2022-12-07T01:20:30;17.25;;;8.10;;
73642;SDS011;61938;48.652;9.292;2022-12-07T01:22:55;17.52;;;7.93;;
73642;SDS011;61938;48.652;9.292;2022-12-07T01:25:21;17.83;;;9.25;;
73642;SDS011;61938;48.652;9.292;2022-12-07T01:27:46;23.23;;;9.93;;
73642;SDS011;61938;48.652;9.292;2022-12-07T01:30:12;54.17;;;17.50;;
73642;SDS011;61938;48.652;9.292;2022-12-07T01:32:38;40.05;;;16.65;;
73642;SDS011;61938;48.652;9.292;2022-12-07T01:35:03;30.10;;;11.25;;
73642;SDS011;61938;48.652;9.292;2022-12-07T01:37:33;40.60;;;17.10;;
73642;SDS011;61938;48.652;9.292;2022-12-07T01:40:00;33.57;;;16.60;;
73642;SDS011;61938;48.652;9.292;2022-12-07T01:42:25;90.28;;;33.95;;
73642;SDS011;61938;48.652;9.292;2022-12-07T01:48:00;62.47;;;28.17;;
73642;SDS011;61938;48.652;9.292;2022-12-07T01:50:27;40.38;;;19.52;;
73642;SDS011;61938;48.652;9.292;2022-12-07T01:52:56;34.17;;;15.90;;
73642;SDS011;61938;48.652;9.292;2022-12-07T01:55:23;32.30;;;13.55;;
73642;SDS011;61938;48.652;9.292;2022-12-07T01:57:50;25.30;;;12.15;;
73642;SDS011;61938;48.652;9.292;2022-12-07T02:00:19;20.48;;;9.75;;
73642;SDS011;61938;48.652;9.292;2022-12-07T02:02:59;27.80;;;11.65;;
73642;SDS011;61938;48.652;9.292;2022-12-07T02:05:30;24.58;;;11.82;;
73642;SDS011;61938;48.652;9.292;2022-12-07T02:07:56;22.33;;;11.40;;
73642;SDS011;61938;48.652;9.292;2022-12-07T02:10:23;25.90;;;11.40;;
73642;SDS011;61938;48.652;9.292;2022-12-07T02:13:15;25.50;;;12.67;;
73642;SDS011;61938;48.652;9.292;2022-12-07T02:15:45;23.80;;;12.02;;
73642;SDS011;61938;48.652;9.292;2022-12-07T02:21:02;27.02;;;13.23;;
73642;SDS011;61938;48.652;9.292;2022-12-07T02:29:40;23.63;;;11.55;;
73642;SDS011;61938;48.652;9.292;2022-12-07T02:32:28;25.58;;;12.75;;
73642;SDS011;61938;48.652;9.292;2022-12-07T02:37:41;24.45;;;11.75;;
73642;SDS011;61938;48.652;9.292;2022-12-07T02:40:21;23.25;;;12.52;;
73642;SDS011;61938;48.652;9.292;2022-12-07T02:43:00;28.98;;;12.80;;
73642;SDS011;61938;48.652;9.292;2022-12-07T02:45:32;28.30;;;12.98;;
73642;SDS011;61938;48.652;9.292;2022-12-07T02:48:02;25.13;;;11.98;;
73642;SDS011;61938;48.652;9.292;2022-12-07T02:50:28;24.80;;;11.88;;
73642;SDS011;61938;48.652;9.292;2022-12-07T02:52:54;25.27;;;12.73;;
73642;SDS011;61938;48.652;9.292;2022-12-07T02:55:21;27.38;;;13.32;;
73642;SDS011;61938;48.652;9.292;2022-12-07T02:57:54;27.85;;;12.20;;
73642;SDS011;61938;48.652;9.292;2022-12-07T03:00:25;29.63;;;13.05;;
73642;SDS011;61938;48.652;9.292;2022-12-07T03:02:58;29.23;;;12.80;;
73642;SDS011;61938;48.652;9.292;2022-12-07T03:13:30;27.08;;;12.88;;
73642;SDS011;61938;48.652;9.292;2022-12-07T03:18:32;27.92;;;12.30;;
73642;SDS011;61938;48.652;9.292;2022-12-07T03:21:04;23.17;;;11.85;;
73642;SDS011;61938;48.652;9.292;2022-12-07T03:23:33;32.53;;;13.00;;
73642;SDS011;61938;48.652;9.292;2022-12-07T03:26:02;28.42;;;13.68;;
73642;SDS011;61938;48.652;9.292;2022-12-07T03:28:31;30.50;;;12.68;;
73642;SDS011;61938;48.652;9.292;2022-12-07T03:31:12;25.83;;;12.18;;
73642;SDS011;61938;48.652;9.292;2022-12-07T03:33:56;28.52;;;13.00;;
73642;SDS011;61938;48.652;9.292;2022-12-07T03:36:32;29.02;;;13.38;;
73642;SDS011;61938;48.652;9.292;2022-12-07T03:41:49;29.35;;;12.90;;
73642;SDS011;61938;48.652;9.292;2022-12-07T03:44:15;25.77;;;12.02;;
73642;SDS011;61938;48.652;9.292;2022-12-07T03:55:00;22.50;;;11.82;;
73642;SDS011;61938;48.652;9.292;2022-12-07T03:57:31;29.80;;;12.63;;
73642;SDS011;61938;48.652;9.292;2022-12-07T03:59:59;25.17;;;12.52;;
73642;SDS011;61938;48.652;9.292;2022-12-07T04:02:26;30.10;;;13.68;;
73642;SDS011;61938;48.652;9.292;2022-12-07T04:04:53;29.92;;;13.10;;
73642;SDS011;61938;48.652;9.292;2022-12-07T04:07:20;28.65;;;13.05;;
73642;SDS011;61938;48.652;9.292;2022-12-07T04:09:46;25.23;;;12.15;;
73642;SDS011;61938;48.652;9.292;2022-12-07T04:12:12;27.42;;;12.52;;
73642;SDS011;61938;48.652;9.292;2022-12-07T04:14:37;25.55;;;11.90;;
73642;SDS011;61938;48.652;9.292;2022-12-07T04:17:03;33.88;;;13.52;;
73642;SDS011;61938;48.652;9.292;2022-12-07T04:19:29;27.17;;;13.38;;
73642;SDS011;61938;48.652;9.292;2022-12-07T04:21:57;27.10;;;12.43;;
73642;SDS011;61938;48.652;9.292;2022-12-07T04:24:23;25.20;;;11.82;;
73642;SDS011;61938;48.652;9.292;2022-12-07T04:26:50;32.03;;;13.50;;
73642;SDS011;61938;48.652;9.292;2022-12-07T04:29:16;27.17;;;12.82;;
73642;SDS011;61938;48.652;9.292;2022-12-07T04:31:42;25.83;;;11.52;;
73642;SDS011;61938;48.652;9.292;2022-12-07T04:34:08;31.00;;;12.88;;
73642;SDS011;61938;48.652;9.292;2022-12-07T04:36:33;26.75;;;13.48;;
73642;SDS011;61938;48.652;9.292;2022-12-07T04:38:59;23.13;;;11.10;;
73642;SDS011;61938;48.652;9.292;2022-12-07T04:41:25;26.90;;;12.18;;
73642;SDS011;61938;48.652;9.292;2022-12-07T04:43:54;26.30;;;11.48;;
73642;SDS011;61938;48.652;9.292;2022-12-07T04:46:25;26.38;;;12.73;;
73642;SDS011;61938;48.652;9.292;2022-12-07T04:48:52;26.33;;;12.50;;
73642;SDS011;61938;48.652;9.292;2022-12-07T04:51:22;27.85;;;12.40;;
73642;SDS011;61938;48.652;9.292;2022-12-07T04:53:49;24.95;;;11.55;;
73642;SDS011;61938;48.652;9.292;2022-12-07T04:56:16;25.42;;;12.15;;
73642;SDS011;61938;48.652;9.292;2022-12-07T04:58:42;29.90;;;12.15;;
73642;SDS011;61938;48.652;9.292;2022-12-07T05:01:09;26.92;;;12.77;;
73642;SDS011;61938;48.652;9.292;2022-12-07T05:03:35;26.95;;;12.32;;
73642;SDS011;61938;48.652;9.292;2022-12-07T05:06:01;26.30;;;12.82;;
73642;SDS011;61938;48.652;9.292;2022-12-07T05:08:27;32.92;;;13.35;;
73642;SDS011;61938;48.652;9.292;2022-12-07T05:10:53;31.45;;;13.30;;
73642;SDS011;61938;48.652;9.292;2022-12-07T05:13:18;31.75;;;13.15;;
73642;SDS011;61938;48.652;9.292;2022-12-07T05:15:44;27.73;;;12.55;;
73642;SDS011;61938;48.652;9.292;2022-12-07T05:18:10;31.67;;;13.43;;
73642;SDS011;61938;48.652;9.292;2022-12-07T05:20:37;28.08;;;13.10;;
73642;SDS011;61938;48.652;9.292;2022-12-07T05:23:03;26.98;;;13.00;;
73642;SDS011;61938;48.652;9.292;2022-12-07T05:25:29;29.05;;;13.30;;
73642;SDS011;61938;48.652;9.292;2022-12-07T05:27:55;28.13;;;12.88;;
73642;SDS011;61938;48.652;9.292;2022-12-07T05:30:21;28.92;;;13.40;;
73642;SDS011;61938;48.652;9.292;2022-12-07T05:32:48;29.25;;;12.65;;
73642;SDS011;61938;48.652;9.292;2022-12-07T05:35:13;24.00;;;11.70;;
73642;SDS011;61938;48.652;9.292;2022-12-07T05:37:39;24.50;;;12.00;;
73642;SDS011;61938;48.652;9.292;2022-12-07T05:40:06;27.35;;;12.77;;
73642;SDS011;61938;48.652;9.292;2022-12-07T05:42:33;31.98;;;13.55;;
73642;SDS011;61938;48.652;9.292;2022-12-07T05:44:58;24.38;;;11.77;;
73642;SDS011;61938;48.652;9.292;2022-12-07T05:47:24;27.65;;;12.35;;
73642;SDS011;61938;48.652;9.292;2022-12-07T05:49:49;28.52;;;12.52;;
73642;SDS011;61938;48.652;9.292;2022-12-07T05:52:15;26.10;;;11.60;;
73642;SDS011;61938;48.652;9.292;2022-12-07T05:54:40;26.65;;;11.73;;
73642;SDS011;61938;48.652;9.292;2022-12-07T05:57:06;24.90;;;11.05;;
73642;SDS011;61938;48.652;9.292;2022-12-07T05:59:32;25.77;;;11.77;;
73642;SDS011;61938;48.652;9.292;2022-12-07T06:02:02;26.10;;;11.48;;
73642;SDS011;61938;48.652;9.292;2022-12-07T06:04:31;27.80;;;12.95;;
73642;SDS011;61938;48.652;9.292;2022-12-07T06:06:58;24.65;;;11.50;;
73642;SDS011;61938;48.652;9.292;2022-12-07T06:09:24;22.35;;;11.15;;
73642;SDS011;61938;48.652;9.292;2022-12-07T06:11:51;23.17;;;11.50;;
73642;SDS011;61938;48.652;9.292;2022-12-07T06:14:35;28.27;;;12.05;;
73642;SDS011;61938;48.652;9.292;2022-12-07T06:17:01;24.73;;;11.45;;
73642;SDS011;61938;48.652;9.292;2022-12-07T06:19:27;24.38;;;11.25;;
73642;SDS011;61938;48.652;9.292;2022-12-07T06:21:53;22.65;;;10.98;;
73642;SDS011;61938;48.652;9.292;2022-12-07T06:24:18;26.83;;;11.95;;
73642;SDS011;61938;48.652;9.292;2022-12-07T06:26:44;28.02;;;12.75;;
73642;SDS011;61938;48.652;9.292;2022-12-07T06:29:10;25.02;;;11.38;;
73642;SDS011;61938;48.652;9.292;2022-12-07T06:31:37;27.13;;;12.77;;
73642;SDS011;61938;48.652;9.292;2022-12-07T06:34:03;22.23;;;10.85;;
73642;SDS011;61938;48.652;9.292;2022-12-07T06:36:31;26.88;;;12.07;;
73642;SDS011;61938;48.652;9.292;2022-12-07T06:38:56;27.95;;;13.27;;
73642;SDS011;61938;48.652;9.292;2022-12-07T06:41:22;25.95;;;11.70;;
73642;SDS011;61938;48.652;9.292;2022-12-07T06:43:48;29.50;;;13.00;;
73642;SDS011;61938;48.652;9.292;2022-12-07T06:46:14;39.83;;;15.55;;
73642;SDS011;61938;48.652;9.292;2022-12-07T06:48:40;33.63;;;16.20;;
73642;SDS011;61938;48.652;9.292;2022-12-07T06:51:07;33.28;;;15.05;;
73642;SDS011;61938;48.652;9.292;2022-12-07T06:53:33;28.92;;;12.45;;
73642;SDS011;61938;48.652;9.292;2022-12-07T06:55:58;25.52;;;12.43;;
73642;SDS011;61938;48.652;9.292;2022-12-07T06:58:24;24.40;;;11.30;;
73642;SDS011;61938;48.652;9.292;2022-12-07T07:00:50;27.02;;;12.90;;
73642;SDS011;61938;48.652;9.292;2022-12-07T07:03:16;38.58;;;15.35;;
73642;SDS011;61938;48.652;9.292;2022-12-07T07:05:42;44.78;;;18.70;;
73642;SDS011;61938;48.652;9.292;2022-12-07T07:08:08;34.40;;;14.55;;
73642;SDS011;61938;48.652;9.292;2022-12-07T07:10:34;26.13;;;12.00;;
73642;SDS011;61938;48.652;9.292;2022-12-07T07:13:00;24.25;;;11.73;;
73642;SDS011;61938;48.652;9.292;2022-12-07T07:15:26;27.15;;;11.50;;
73642;SDS011;61938;48.652;9.292;2022-12-07T07:17:51;19.80;;;10.38;;
73642;SDS011;61938;48.652;9.292;2022-12-07T07:20:17;20.73;;;10.20;;
73642;SDS011;61938;48.652;9.292;2022-12-07T07:22:43;20.95;;;10.02;;
73642;SDS011;61938;48.652;9.292;2022-12-07T07:25:08;20.33;;;9.68;;
73642;SDS011;61938;48.652;9.292;2022-12-07T07:27:34;26.45;;;11.68;;
73642;SDS011;61938;48.652;9.292;2022-12-07T07:29:59;26.27;;;12.57;;
73642;SDS011;61938;48.652;9.292;2022-12-07T07:32:25;23.02;;;11.52;;
73642;SDS011;61938;48.652;9.292;2022-12-07T07:34:50;23.48;;;11.35;;
73642;SDS011;61938;48.652;9.292;2022-12-07T07:37:16;24.20;;;12.80;;
73642;SDS011;61938;48.652;9.292;2022-12-07T07:39:41;29.33;;;13.50;;
73642;SDS011;61938;48.652;9.292;2022-12-07T07:42:07;28.13;;;14.52;;
73642;SDS011;61938;48.652;9.292;2022-12-07T07:44:33;28.33;;;13.43;;
73642;SDS011;61938;48.652;9.292;2022-12-07T07:46:59;24.48;;;12.45;;
73642;SDS011;61938;48.652;9.292;2022-12-07T07:49:25;25.98;;;11.93;;
73642;SDS011;61938;48.652;9.292;2022-12-07T07:51:50;25.45;;;12.10;;
73642;SDS011;61938;48.652;9.292;2022-12-07T07:54:16;23.55;;;11.68;;
73642;SDS011;61938;48.652;9.292;2022-12-07T07:56:42;28.75;;;12.07;;
73642;SDS011;61938;48.652;9.292;2022-12-07T07:59:07;31.95;;;14.55;;
73642;SDS011;61938;48.652;9.292;2022-12-07T08:01:33;30.38;;;14.13;;
73642;SDS011;61938;48.652;9.292;2022-12-07T08:03:58;22.88;;;12.10;;
73642;SDS011;61938;48.652;9.292;2022-12-07T08:06:24;24.98;;;12.43;;
73642;SDS011;61938;48.652;9.292;2022-12-07T08:08:50;25.13;;;12.45;;
73642;SDS011;61938;48.652;9.292;2022-12-07T08:11:15;34.17;;;13.77;;
73642;SDS011;61938;48.652;9.292;2022-12-07T08:13:41;23.98;;;12.30;;
73642;SDS011;61938;48.652;9.292;2022-12-07T08:16:08;23.65;;;12.00;;
73642;SDS011;61938;48.652;9.292;2022-12-07T08:18:38;23.23;;;11.13;;
73642;SDS011;61938;48.652;9.292;2022-12-07T08:21:05;22.73;;;11.27;;
73642;SDS011;61938;48.652;9.292;2022-12-07T08:23:32;22.08;;;11.23;;
73642;SDS011;61938;48.652;9.292;2022-12-07T08:26:02;30.30;;;12.07;;
73642;SDS011;61938;48.652;9.292;2022-12-07T08:28:35;20.60;;;10.65;;
73642;SDS011;61938;48.652;9.292;2022-12-07T08:31:02;25.08;;;12.02;;
73642;SDS011;61938;48.652;9.292;2022-12-07T08:33:39;20.42;;;10.88;;
73642;SDS011;61938;48.652;9.292;2022-12-07T08:36:05;20.55;;;10.73;;
73642;SDS011;61938;48.652;9.292;2022-12-07T08:38:36;22.60;;;11.30;;
73642;SDS011;61938;48.652;9.292;2022-12-07T08:41:03;22.77;;;10.65;;
73642;SDS011;61938;48.652;9.292;2022-12-07T08:43:29;25.20;;;10.95;;
73642;SDS011;61938;48.652;9.292;2022-12-07T08:48:50;22.23;;;10.40;;
73642;SDS011;61938;48.652;9.292;2022-12-07T08:51:22;21.52;;;10.52;;
73642;SDS011;61938;48.652;9.292;2022-12-07T08:53:49;18.92;;;9.40;;
73642;SDS011;61938;48.652;9.292;2022-12-07T08:56:16;22.95;;;10.18;;
73642;SDS011;61938;48.652;9.292;2022-12-07T08:58:41;21.33;;;10.15;;
73642;SDS011;61938;48.652;9.292;2022-12-07T09:01:07;23.73;;;10.50;;
73642;SDS011;61938;48.652;9.292;2022-12-07T09:03:33;24.02;;;10.45;;
73642;SDS011;61938;48.652;9.292;2022-12-07T09:05:59;25.15;;;11.55;;
73642;SDS011;61938;48.652;9.292;2022-12-07T09:08:26;34.88;;;14.93;;
73642;SDS011;61938;48.652;9.292;2022-12-07T09:10:58;27.25;;;12.07;;
73642;SDS011;61938;48.652;9.292;2022-12-07T09:13:23;20.55;;;10.82;;
73642;SDS011;61938;48.652;9.292;2022-12-07T09:15:49;24.00;;;10.85;;
73642;SDS011;61938;48.652;9.292;2022-12-07T09:18:14;22.48;;;11.27;;
73642;SDS011;61938;48.652;9.292;2022-12-07T09:20:40;22.63;;;11.80;;
73642;SDS011;61938;48.652;9.292;2022-12-07T09:23:05;23.52;;;12.00;;
73642;SDS011;61938;48.652;9.292;2022-12-07T09:25:32;23.35;;;11.10;;
73642;SDS011;61938;48.652;9.292;2022-12-07T09:27:58;23.38;;;12.23;;
73642;SDS011;61938;48.652;9.292;2022-12-07T09:30:25;23.20;;;11.15;;
73642;SDS011;61938;48.652;9.292;2022-12-07T09:32:55;24.23;;;11.40;;
73642;SDS011;61938;48.652;9.292;2022-12-07T09:35:22;23.30;;;10.85;;
73642;SDS011;61938;48.652;9.292;2022-12-07T09:37:48;24.10;;;10.65;;
73642;SDS011;61938;48.652;9.292;2022-12-07T09:40:14;24.73;;;11.43;;
73642;SDS011;61938;48.652;9.292;2022-12-07T09:42:42;25.98;;;11.32;;
73642;SDS011;61938;48.652;9.292;2022-12-07T09:45:19;21.98;;;10.93;;
73642;SDS011;61938;48.652;9.292;2022-12-07T09:47:47;21.90;;;10.48;;
73642;SDS011;61938;48.652;9.292;2022-12-07T09:50:15;18.90;;;10.43;;
73642;SDS011;61938;48.652;9.292;2022-12-07T09:52:44;22.23;;;9.77;;
73642;SDS011;61938;48.652;9.292;2022-12-07T09:55:19;20.10;;;9.90;;
73642;SDS011;61938;48.652;9.292;2022-12-07T09:57:50;25.67;;;11.10;;
73642;SDS011;61938;48.652;9.292;2022-12-07T10:00:18;25.27;;;11.68;;
73642;SDS011;61938;48.652;9.292;2022-12-07T10:02:50;23.88;;;11.38;;
73642;SDS011;61938;48.652;9.292;2022-12-07T10:05:30;17.67;;;9.07;;
73642;SDS011;61938;48.652;9.292;2022-12-07T10:07:59;18.67;;;10.30;;
73642;SDS011;61938;48.652;9.292;2022-12-07T10:10:26;16.02;;;8.32;;
73642;SDS011;61938;48.652;9.292;2022-12-07T10:13:01;15.00;;;8.32;;
73642;SDS011;61938;48.652;9.292;2022-12-07T10:18:28;18.67;;;7.75;;
73642;SDS011;61938;48.652;9.292;2022-12-07T10:21:03;18.92;;;8.50;;
73642;SDS011;61938;48.652;9.292;2022-12-07T10:24:03;14.88;;;7.72;;
73642;SDS011;61938;48.652;9.292;2022-12-07T10:26:38;16.27;;;7.72;;
73642;SDS011;61938;48.652;9.292;2022-12-07T10:29:22;15.40;;;7.95;;
73642;SDS011;61938;48.652;9.292;2022-12-07T10:31:55;17.42;;;7.65;;
73642;SDS011;61938;48.652;9.292;2022-12-07T10:34:28;16.02;;;8.23;;
73642;SDS011;61938;48.652;9.292;2022-12-07T10:37:14;15.70;;;7.95;;
73642;SDS011;61938;48.652;9.292;2022-12-07T10:39:46;16.23;;;7.80;;
73642;SDS011;61938;48.652;9.292;2022-12-07T10:42:22;16.83;;;8.10;;
73642;SDS011;61938;48.652;9.292;2022-12-07T10:45:09;15.35;;;7.97;;
73642;SDS011;61938;48.652;9.292;2022-12-07T10:47:51;20.92;;;8.23;;
73642;SDS011;61938;48.652;9.292;2022-12-07T10:50:47;17.60;;;7.75;;
73642;SDS011;61938;48.652;9.292;2022-12-07T10:58:51;18.42;;;7.93;;
73642;SDS011;61938;48.652;9.292;2022-12-07T11:01:57;17.95;;;7.85;;
73642;SDS011;61938;48.652;9.292;2022-12-07T11:05:22;14.60;;;6.80;;
73642;SDS011;61938;48.652;9.292;2022-12-07T11:08:33;15.65;;;6.90;;
73642;SDS011;61938;48.652;9.292;2022-12-07T11:11:42;15.73;;;7.03;;
73642;SDS011;61938;48.652;9.292;2022-12-07T11:20:16;15.80;;;7.53;;
73642;SDS011;61938;48.652;9.292;2022-12-07T11:25:32;11.52;;;5.65;;
73642;SDS011;61938;48.652;9.292;2022-12-07T11:30:57;16.42;;;7.50;;
73642;SDS011;61938;48.652;9.292;2022-12-07T11:33:40;12.43;;;6.25;;
73642;SDS011;61938;48.652;9.292;2022-12-07T11:41:43;15.13;;;6.63;;
73642;SDS011;61938;48.652;9.292;2022-12-07T11:53:02;14.90;;;7.45;;
73642;SDS011;61938;48.652;9.292;2022-12-07T11:58:18;16.00;;;7.50;;
73642;SDS011;61938;48.652;9.292;2022-12-07T12:01:03;15.32;;;7.20;;
73642;SDS011;61938;48.652;9.292;2022-12-07T12:03:47;13.82;;;6.82;;
73642;SDS011;61938;48.652;9.292;2022-12-07T12:06:17;14.85;;;7.38;;
73642;SDS011;61938;48.652;9.292;2022-12-07T12:08:54;16.55;;;6.35;;
73642;SDS011;61938;48.652;9.292;2022-12-07T12:20:19;16.92;;;8.27;;
73642;SDS011;61938;48.652;9.292;2022-12-07T12:23:04;12.50;;;5.47;;
73642;SDS011;61938;48.652;9.292;2022-12-07T12:25:45;12.15;;;6.25;;
73642;SDS011;61938;48.652;9.292;2022-12-07T12:31:16;23.50;;;7.60;;
73642;SDS011;61938;48.652;9.292;2022-12-07T12:33:46;14.20;;;7.45;;
73642;SDS011;61938;48.652;9.292;2022-12-07T12:44:03;13.52;;;7.45;;
73642;SDS011;61938;48.652;9.292;2022-12-07T12:54:29;12.07;;;6.93;;
73642;SDS011;61938;48.652;9.292;2022-12-07T12:59:35;13.48;;;6.82;;
73642;SDS011;61938;48.652;9.292;2022-12-07T13:04:56;18.42;;;8.10;;
73642;SDS011;61938;48.652;9.292;2022-12-07T13:07:47;17.70;;;7.53;;
73642;SDS011;61938;48.652;9.292;2022-12-07T13:15:55;16.02;;;7.60;;
73642;SDS011;61938;48.652;9.292;2022-12-07T13:18:39;18.90;;;8.68;;
73642;SDS011;61938;48.652;9.292;2022-12-07T13:26:13;21.55;;;8.55;;
73642;SDS011;61938;48.652;9.292;2022-12-07T13:28:44;14.35;;;7.65;;
73642;SDS011;61938;48.652;9.292;2022-12-07T13:31:12;14.30;;;6.90;;
73642;SDS011;61938;48.652;9.292;2022-12-07T13:33:42;23.40;;;9.68;;
73642;SDS011;61938;48.652;9.292;2022-12-07T13:36:12;16.05;;;8.38;;
73642;SDS011;61938;48.652;9.292;2022-12-07T13:38:53;16.85;;;7.70;;
73642;SDS011;61938;48.652;9.292;2022-12-07T13:41:21;17.27;;;8.13;;
73642;SDS011;61938;48.652;9.292;2022-12-07T13:43:53;15.60;;;7.90;;
73642;SDS011;61938;48.652;9.292;2022-12-07T13:46:26;15.55;;;7.47;;
73642;SDS011;61938;48.652;9.292;2022-12-07T13:49:01;21.73;;;7.85;;
73642;SDS011;61938;48.652;9.292;2022-12-07T13:51:27;16.40;;;7.50;;
73642;SDS011;61938;48.652;9.292;2022-12-07T13:53:54;17.60;;;8.45;;
73642;SDS011;61938;48.652;9.292;2022-12-07T13:56:26;11.25;;;6.43;;
73642;SDS011;61938;48.652;9.292;2022-12-07T13:58:57;16.73;;;6.75;;
73642;SDS011;61938;48.652;9.292;2022-12-07T14:01:23;13.23;;;6.95;;
73642;SDS011;61938;48.652;9.292;2022-12-07T14:03:49;14.98;;;7.18;;
73642;SDS011;61938;48.652;9.292;2022-12-07T14:08:43;16.08;;;7.82;;
73642;SDS011;61938;48.652;9.292;2022-12-07T14:11:12;22.95;;;7.82;;
73642;SDS011;61938;48.652;9.292;2022-12-07T14:16:25;11.23;;;6.40;;
73642;SDS011;61938;48.652;9.292;2022-12-07T14:18:56;14.07;;;6.88;;
73642;SDS011;61938;48.652;9.292;2022-12-07T14:21:27;14.50;;;7.47;;
73642;SDS011;61938;48.652;9.292;2022-12-07T14:24:12;19.30;;;7.25;;
73642;SDS011;61938;48.652;9.292;2022-12-07T14:26:42;13.48;;;7.10;;
73642;SDS011;61938;48.652;9.292;2022-12-07T14:29:21;13.00;;;6.70;;
73642;SDS011;61938;48.652;9.292;2022-12-07T14:31:56;15.23;;;6.93;;
73642;SDS011;61938;48.652;9.292;2022-12-07T14:34:23;16.40;;;7.60;;
73642;SDS011;61938;48.652;9.292;2022-12-07T14:36:49;15.43;;;7.38;;
73642;SDS011;61938;48.652;9.292;2022-12-07T14:39:15;12.75;;;7.43;;
73642;SDS011;61938;48.652;9.292;2022-12-07T14:41:41;12.40;;;6.55;;
73642;SDS011;61938;48.652;9.292;2022-12-07T14:44:16;11.45;;;5.35;;
73642;SDS011;61938;48.652;9.292;2022-12-07T14:46:42;14.48;;;6.55;;
73642;SDS011;61938;48.652;9.292;2022-12-07T14:49:07;12.82;;;6.95;;
73642;SDS011;61938;48.652;9.292;2022-12-07T14:51:33;15.18;;;6.05;;
73642;SDS011;61938;48.652;9.292;2022-12-07T14:54:02;10.60;;;6.00;;
73642;SDS011;61938;48.652;9.292;2022-12-07T14:56:30;9.35;;;5.40;;
73642;SDS011;61938;48.652;9.292;2022-12-07T14:58:55;11.90;;;6.10;;
73642;SDS011;61938;48.652;9.292;2022-12-07T15:01:21;11.65;;;6.07;;
73642;SDS011;61938;48.652;9.292;2022-12-07T15:03:46;17.60;;;6.57;;
73642;SDS011;61938;48.652;9.292;2022-12-07T15:06:16;14.93;;;6.10;;
73642;SDS011;61938;48.652;9.292;2022-12-07T15:08:42;10.68;;;5.53;;
73642;SDS011;61938;48.652;9.292;2022-12-07T15:11:16;12.18;;;5.90;;
73642;SDS011;61938;48.652;9.292;2022-12-07T15:13:42;17.48;;;7.20;;
73642;SDS011;61938;48.652;9.292;2022-12-07T15:16:26;13.40;;;7.53;;
73642;SDS011;61938;48.652;9.292;2022-12-07T15:18:52;10.50;;;5.72;;
73642;SDS011;61938;48.652;9.292;2022-12-07T15:21:18;13.35;;;5.20;;
73642;SDS011;61938;48.652;9.292;2022-12-07T15:23:43;11.50;;;5.50;;
73642;SDS011;61938;48.652;9.292;2022-12-07T15:26:10;14.35;;;5.47;;
73642;SDS011;61938;48.652;9.292;2022-12-07T15:28:36;17.95;;;6.32;;
73642;SDS011;61938;48.652;9.292;2022-12-07T15:31:02;19.33;;;6.93;;
73642;SDS011;61938;48.652;9.292;2022-12-07T15:33:27;13.82;;;6.68;;
73642;SDS011;61938;48.652;9.292;2022-12-07T15:35:53;16.77;;;6.47;;
73642;SDS011;61938;48.652;9.292;2022-12-07T15:38:19;17.63;;;7.38;;
73642;SDS011;61938;48.652;9.292;2022-12-07T15:40:48;13.63;;;6.18;;
73642;SDS011;61938;48.652;9.292;2022-12-07T15:43:13;12.05;;;7.07;;
73642;SDS011;61938;48.652;9.292;2022-12-07T15:45:58;14.10;;;6.90;;
73642;SDS011;61938;48.652;9.292;2022-12-07T15:48:24;14.13;;;6.88;;
73642;SDS011;61938;48.652;9.292;2022-12-07T15:50:50;18.67;;;6.85;;
73642;SDS011;61938;48.652;9.292;2022-12-07T15:53:15;13.35;;;7.60;;
73642;SDS011;61938;48.652;9.292;2022-12-07T15:55:41;13.63;;;7.60;;
73642;SDS011;61938;48.652;9.292;2022-12-07T15:58:06;22.85;;;9.32;;
73642;SDS011;61938;48.652;9.292;2022-12-07T16:00:32;19.80;;;8.95;;
73642;SDS011;61938;48.652;9.292;2022-12-07T16:02:58;14.60;;;7.93;;
73642;SDS011;61938;48.652;9.292;2022-12-07T16:05:23;19.08;;;10.25;;
73642;SDS011;61938;48.652;9.292;2022-12-07T16:07:49;18.50;;;9.40;;
73642;SDS011;61938;48.652;9.292;2022-12-07T16:10:14;22.48;;;9.73;;
73642;SDS011;61938;48.652;9.292;2022-12-07T16:12:40;16.13;;;8.95;;
73642;SDS011;61938;48.652;9.292;2022-12-07T16:15:05;17.50;;;8.35;;
73642;SDS011;61938;48.652;9.292;2022-12-07T16:17:31;22.58;;;9.88;;
73642;SDS011;61938;48.652;9.292;2022-12-07T16:19:57;19.73;;;9.80;;
73642;SDS011;61938;48.652;9.292;2022-12-07T16:22:23;22.25;;;10.93;;
73642;SDS011;61938;48.652;9.292;2022-12-07T16:24:48;20.50;;;10.60;;
73642;SDS011;61938;48.652;9.292;2022-12-07T16:27:14;19.17;;;10.10;;
73642;SDS011;61938;48.652;9.292;2022-12-07T16:29:40;21.30;;;9.80;;
73642;SDS011;61938;48.652;9.292;2022-12-07T16:32:05;20.50;;;8.50;;
73642;SDS011;61938;48.652;9.292;2022-12-07T16:34:31;18.00;;;7.78;;
73642;SDS011;61938;48.652;9.292;2022-12-07T16:36:56;15.75;;;7.10;;
73642;SDS011;61938;48.652;9.292;2022-12-07T16:39:22;20.55;;;7.68;;
73642;SDS011;61938;48.652;9.292;2022-12-07T16:41:47;15.50;;;6.88;;
73642;SDS011;61938;48.652;9.292;2022-12-07T16:44:13;18.70;;;8.80;;
73642;SDS011;61938;48.652;9.292;2022-12-07T16:46:39;18.13;;;7.75;;